sensor_id;sensor_type;location;lat;lon;timestamp;P1;durP1;ratioP1;P2;durP2;ratioP2
41685;SDS011;27370;42.764;23.432;2024-03-08T00:00:26;1.02;;;0.47;;
41685;SDS011;27370;42.764;23.432;2024-03-08T00:02:52;0.45;;;0.30;;
41685;SDS011;27370;42.764;23.432;2024-03-08T00:05:19;1.17;;;0.52;;
41685;SDS011;27370;42.764;23.432;2024-03-08T00:07:45;0.60;;;0.43;;
41685;SDS011;27370;42.764;23.432;2024-03-08T00:10:11;0.60;;;0.50;;
41685;SDS011;27370;42.764;23.432;2024-03-08T00:12:38;0.50;;;0.47;;
41685;SDS011;27370;42.764;23.432;2024-03-08T00:15:07;0.45;;;0.32;;
41685;SDS011;27370;42.764;23.432;2024-03-08T00:17:33;0.40;;;0.40;;
41685;SDS011;27370;42.764;23.432;2024-03-08T00:19:59;6.07;;;1.67;;
41685;SDS011;27370;42.764;23.432;2024-03-08T00:22:25;0.50;;;0.30;;
41685;SDS011;27370;42.764;23.432;2024-03-08T00:24:50;0.22;;;0.20;;
41685;SDS011;27370;42.764;23.432;2024-03-08T00:27:16;0.50;;;0.30;;
41685;SDS011;27370;42.764;23.432;2024-03-08T00:29:41;1.10;;;0.60;;
41685;SDS011;27370;42.764;23.432;2024-03-08T00:32:07;0.63;;;0.52;;
41685;SDS011;27370;42.764;23.432;2024-03-08T00:34:35;0.90;;;0.60;;
41685;SDS011;27370;42.764;23.432;2024-03-08T00:37:01;1.40;;;1.00;;
41685;SDS011;27370;42.764;23.432;2024-03-08T00:39:27;0.98;;;0.63;;
41685;SDS011;27370;42.764;23.432;2024-03-08T00:41:53;2.47;;;0.77;;
41685;SDS011;27370;42.764;23.432;2024-03-08T00:44:18;1.10;;;0.90;;
41685;SDS011;27370;42.764;23.432;2024-03-08T00:46:44;1.10;;;0.90;;
41685;SDS011;27370;42.764;23.432;2024-03-08T00:49:09;1.55;;;1.15;;
41685;SDS011;27370;42.764;23.432;2024-03-08T00:51:34;1.60;;;1.30;;
41685;SDS011;27370;42.764;23.432;2024-03-08T00:54:01;2.50;;;1.02;;
41685;SDS011;27370;42.764;23.432;2024-03-08T00:56:26;1.45;;;1.10;;
41685;SDS011;27370;42.764;23.432;2024-03-08T00:58:52;1.77;;;1.10;;
41685;SDS011;27370;42.764;23.432;2024-03-08T01:01:18;2.58;;;0.98;;
41685;SDS011;27370;42.764;23.432;2024-03-08T01:03:44;4.45;;;2.53;;
41685;SDS011;27370;42.764;23.432;2024-03-08T01:06:10;8.27;;;2.80;;
41685;SDS011;27370;42.764;23.432;2024-03-08T01:08:36;9.00;;;4.07;;
41685;SDS011;27370;42.764;23.432;2024-03-08T01:11:06;2.05;;;1.20;;
41685;SDS011;27370;42.764;23.432;2024-03-08T01:13:31;2.38;;;0.95;;
41685;SDS011;27370;42.764;23.432;2024-03-08T01:15:57;3.05;;;1.10;;
41685;SDS011;27370;42.764;23.432;2024-03-08T01:18:22;3.78;;;1.48;;
41685;SDS011;27370;42.764;23.432;2024-03-08T01:20:48;4.35;;;2.03;;
41685;SDS011;27370;42.764;23.432;2024-03-08T01:23:13;1.60;;;1.02;;
41685;SDS011;27370;42.764;23.432;2024-03-08T01:25:39;1.52;;;0.90;;
41685;SDS011;27370;42.764;23.432;2024-03-08T01:28:04;1.45;;;1.00;;
41685;SDS011;27370;42.764;23.432;2024-03-08T01:30:30;6.47;;;1.30;;
41685;SDS011;27370;42.764;23.432;2024-03-08T01:32:58;10.93;;;2.78;;
41685;SDS011;27370;42.764;23.432;2024-03-08T01:35:23;5.57;;;2.20;;
41685;SDS011;27370;42.764;23.432;2024-03-08T01:37:49;3.45;;;1.33;;
41685;SDS011;27370;42.764;23.432;2024-03-08T01:40:14;0.68;;;0.68;;
41685;SDS011;27370;42.764;23.432;2024-03-08T01:42:42;1.17;;;0.93;;
41685;SDS011;27370;42.764;23.432;2024-03-08T01:45:08;1.80;;;1.10;;
41685;SDS011;27370;42.764;23.432;2024-03-08T01:47:34;1.73;;;1.20;;
41685;SDS011;27370;42.764;23.432;2024-03-08T01:50:00;1.73;;;1.10;;
41685;SDS011;27370;42.764;23.432;2024-03-08T01:52:31;2.53;;;2.15;;
41685;SDS011;27370;42.764;23.432;2024-03-08T01:55:02;2.15;;;1.80;;
41685;SDS011;27370;42.764;23.432;2024-03-08T01:57:29;1.60;;;1.17;;
41685;SDS011;27370;42.764;23.432;2024-03-08T01:59:56;2.17;;;0.98;;
41685;SDS011;27370;42.764;23.432;2024-03-08T02:02:22;5.05;;;2.35;;
41685;SDS011;27370;42.764;23.432;2024-03-08T02:04:48;4.80;;;2.38;;
41685;SDS011;27370;42.764;23.432;2024-03-08T02:07:14;1.30;;;1.20;;
41685;SDS011;27370;42.764;23.432;2024-03-08T02:09:39;1.00;;;0.80;;
41685;SDS011;27370;42.764;23.432;2024-03-08T02:12:05;0.75;;;0.60;;
41685;SDS011;27370;42.764;23.432;2024-03-08T02:14:35;0.55;;;0.45;;
41685;SDS011;27370;42.764;23.432;2024-03-08T02:17:01;3.60;;;0.95;;
41685;SDS011;27370;42.764;23.432;2024-03-08T02:19:27;2.50;;;1.40;;
41685;SDS011;27370;42.764;23.432;2024-03-08T02:21:53;2.85;;;1.60;;
41685;SDS011;27370;42.764;23.432;2024-03-08T02:24:19;2.88;;;1.90;;
41685;SDS011;27370;42.764;23.432;2024-03-08T02:26:44;2.38;;;1.60;;
41685;SDS011;27370;42.764;23.432;2024-03-08T02:29:09;3.65;;;1.98;;
41685;SDS011;27370;42.764;23.432;2024-03-08T02:31:35;1.50;;;1.30;;
41685;SDS011;27370;42.764;23.432;2024-03-08T02:34:00;1.83;;;1.30;;
41685;SDS011;27370;42.764;23.432;2024-03-08T02:36:26;1.77;;;1.65;;
41685;SDS011;27370;42.764;23.432;2024-03-08T02:38:51;4.40;;;2.17;;
41685;SDS011;27370;42.764;23.432;2024-03-08T02:41:17;2.00;;;1.65;;
41685;SDS011;27370;42.764;23.432;2024-03-08T02:43:42;3.13;;;1.95;;
41685;SDS011;27370;42.764;23.432;2024-03-08T02:46:09;1.98;;;1.45;;
41685;SDS011;27370;42.764;23.432;2024-03-08T02:48:35;2.03;;;1.02;;
41685;SDS011;27370;42.764;23.432;2024-03-08T02:51:00;0.93;;;0.73;;
41685;SDS011;27370;42.764;23.432;2024-03-08T02:53:27;1.00;;;0.52;;
41685;SDS011;27370;42.764;23.432;2024-03-08T02:55:52;1.52;;;0.68;;
41685;SDS011;27370;42.764;23.432;2024-03-08T02:58:18;0.90;;;0.40;;
41685;SDS011;27370;42.764;23.432;2024-03-08T03:00:43;1.00;;;0.70;;
41685;SDS011;27370;42.764;23.432;2024-03-08T03:03:09;3.08;;;0.80;;
41685;SDS011;27370;42.764;23.432;2024-03-08T03:05:35;1.10;;;0.60;;
41685;SDS011;27370;42.764;23.432;2024-03-08T03:08:00;0.73;;;0.50;;
41685;SDS011;27370;42.764;23.432;2024-03-08T03:10:26;1.02;;;0.65;;
41685;SDS011;27370;42.764;23.432;2024-03-08T03:12:52;6.05;;;2.03;;
41685;SDS011;27370;42.764;23.432;2024-03-08T03:15:18;9.20;;;3.45;;
41685;SDS011;27370;42.764;23.432;2024-03-08T03:17:50;8.05;;;2.45;;
41685;SDS011;27370;42.764;23.432;2024-03-08T03:20:16;9.35;;;2.25;;
41685;SDS011;27370;42.764;23.432;2024-03-08T03:22:48;9.18;;;2.88;;
41685;SDS011;27370;42.764;23.432;2024-03-08T03:25:20;5.15;;;2.13;;
41685;SDS011;27370;42.764;23.432;2024-03-08T03:27:53;3.92;;;1.80;;
41685;SDS011;27370;42.764;23.432;2024-03-08T03:30:22;4.32;;;1.55;;
41685;SDS011;27370;42.764;23.432;2024-03-08T03:32:48;2.05;;;1.13;;
41685;SDS011;27370;42.764;23.432;2024-03-08T03:35:16;1.23;;;0.90;;
41685;SDS011;27370;42.764;23.432;2024-03-08T03:37:42;1.48;;;1.23;;
41685;SDS011;27370;42.764;23.432;2024-03-08T03:40:10;5.28;;;2.10;;
41685;SDS011;27370;42.764;23.432;2024-03-08T03:42:37;4.32;;;1.15;;
41685;SDS011;27370;42.764;23.432;2024-03-08T03:45:04;1.55;;;0.90;;
41685;SDS011;27370;42.764;23.432;2024-03-08T03:47:34;1.80;;;0.77;;
41685;SDS011;27370;42.764;23.432;2024-03-08T03:50:00;1.65;;;1.10;;
41685;SDS011;27370;42.764;23.432;2024-03-08T03:52:27;1.98;;;1.33;;
41685;SDS011;27370;42.764;23.432;2024-03-08T03:54:53;1.15;;;0.77;;
41685;SDS011;27370;42.764;23.432;2024-03-08T03:57:18;1.17;;;0.85;;
41685;SDS011;27370;42.764;23.432;2024-03-08T03:59:48;1.40;;;0.90;;
41685;SDS011;27370;42.764;23.432;2024-03-08T04:02:13;1.55;;;1.25;;
41685;SDS011;27370;42.764;23.432;2024-03-08T04:04:40;2.22;;;1.17;;
41685;SDS011;27370;42.764;23.432;2024-03-08T04:07:05;8.15;;;3.00;;
41685;SDS011;27370;42.764;23.432;2024-03-08T04:09:31;5.55;;;2.63;;
41685;SDS011;27370;42.764;23.432;2024-03-08T04:11:56;3.72;;;1.88;;
41685;SDS011;27370;42.764;23.432;2024-03-08T04:14:22;3.50;;;1.80;;
41685;SDS011;27370;42.764;23.432;2024-03-08T04:16:48;1.67;;;1.17;;
41685;SDS011;27370;42.764;23.432;2024-03-08T04:19:14;2.40;;;1.52;;
41685;SDS011;27370;42.764;23.432;2024-03-08T04:21:39;2.35;;;1.50;;
41685;SDS011;27370;42.764;23.432;2024-03-08T04:24:05;1.98;;;1.45;;
41685;SDS011;27370;42.764;23.432;2024-03-08T04:26:30;3.38;;;1.20;;
41685;SDS011;27370;42.764;23.432;2024-03-08T04:28:56;2.47;;;1.42;;
41685;SDS011;27370;42.764;23.432;2024-03-08T04:31:22;2.75;;;1.70;;
41685;SDS011;27370;42.764;23.432;2024-03-08T04:33:47;4.10;;;2.15;;
41685;SDS011;27370;42.764;23.432;2024-03-08T04:36:13;3.72;;;2.30;;
41685;SDS011;27370;42.764;23.432;2024-03-08T04:38:39;3.30;;;2.25;;
41685;SDS011;27370;42.764;23.432;2024-03-08T04:41:06;2.72;;;2.03;;
41685;SDS011;27370;42.764;23.432;2024-03-08T04:43:32;3.05;;;2.25;;
41685;SDS011;27370;42.764;23.432;2024-03-08T04:45:57;4.00;;;2.42;;
41685;SDS011;27370;42.764;23.432;2024-03-08T04:48:23;2.78;;;1.65;;
41685;SDS011;27370;42.764;23.432;2024-03-08T04:50:52;3.67;;;2.15;;
41685;SDS011;27370;42.764;23.432;2024-03-08T04:53:19;4.93;;;2.95;;
41685;SDS011;27370;42.764;23.432;2024-03-08T04:55:44;4.43;;;2.42;;
41685;SDS011;27370;42.764;23.432;2024-03-08T04:58:10;6.57;;;3.30;;
41685;SDS011;27370;42.764;23.432;2024-03-08T05:00:35;3.17;;;2.60;;
41685;SDS011;27370;42.764;23.432;2024-03-08T05:03:01;6.30;;;3.58;;
41685;SDS011;27370;42.764;23.432;2024-03-08T05:05:26;6.82;;;3.60;;
41685;SDS011;27370;42.764;23.432;2024-03-08T05:07:54;4.18;;;2.45;;
41685;SDS011;27370;42.764;23.432;2024-03-08T05:10:19;6.57;;;3.58;;
41685;SDS011;27370;42.764;23.432;2024-03-08T05:12:45;7.90;;;4.85;;
41685;SDS011;27370;42.764;23.432;2024-03-08T05:15:10;5.25;;;3.25;;
41685;SDS011;27370;42.764;23.432;2024-03-08T05:17:36;7.18;;;3.72;;
41685;SDS011;27370;42.764;23.432;2024-03-08T05:20:02;6.00;;;3.92;;
41685;SDS011;27370;42.764;23.432;2024-03-08T05:22:29;6.95;;;3.63;;
41685;SDS011;27370;42.764;23.432;2024-03-08T05:24:54;5.50;;;3.83;;
41685;SDS011;27370;42.764;23.432;2024-03-08T05:27:20;4.88;;;3.15;;
41685;SDS011;27370;42.764;23.432;2024-03-08T05:29:46;6.07;;;3.38;;
41685;SDS011;27370;42.764;23.432;2024-03-08T05:32:11;5.75;;;3.58;;
41685;SDS011;27370;42.764;23.432;2024-03-08T05:34:37;9.02;;;4.50;;
41685;SDS011;27370;42.764;23.432;2024-03-08T05:37:03;6.82;;;4.28;;
41685;SDS011;27370;42.764;23.432;2024-03-08T05:39:28;7.85;;;4.85;;
41685;SDS011;27370;42.764;23.432;2024-03-08T05:41:54;6.53;;;4.57;;
41685;SDS011;27370;42.764;23.432;2024-03-08T05:44:21;5.95;;;3.75;;
41685;SDS011;27370;42.764;23.432;2024-03-08T05:46:46;6.63;;;4.40;;
41685;SDS011;27370;42.764;23.432;2024-03-08T05:49:12;7.22;;;4.35;;
41685;SDS011;27370;42.764;23.432;2024-03-08T05:51:39;10.57;;;5.90;;
41685;SDS011;27370;42.764;23.432;2024-03-08T05:54:06;7.05;;;4.38;;
41685;SDS011;27370;42.764;23.432;2024-03-08T05:56:35;8.88;;;4.05;;
41685;SDS011;27370;42.764;23.432;2024-03-08T05:59:01;13.52;;;5.35;;
41685;SDS011;27370;42.764;23.432;2024-03-08T06:01:30;5.55;;;3.72;;
41685;SDS011;27370;42.764;23.432;2024-03-08T06:03:56;6.53;;;4.20;;
41685;SDS011;27370;42.764;23.432;2024-03-08T06:06:25;8.02;;;3.97;;
41685;SDS011;27370;42.764;23.432;2024-03-08T06:08:51;5.65;;;3.65;;
41685;SDS011;27370;42.764;23.432;2024-03-08T06:11:18;3.83;;;2.83;;
41685;SDS011;27370;42.764;23.432;2024-03-08T06:13:44;7.18;;;3.13;;
41685;SDS011;27370;42.764;23.432;2024-03-08T06:16:10;5.00;;;3.40;;
41685;SDS011;27370;42.764;23.432;2024-03-08T06:18:35;4.70;;;2.65;;
41685;SDS011;27370;42.764;23.432;2024-03-08T06:21:07;9.65;;;5.15;;
41685;SDS011;27370;42.764;23.432;2024-03-08T06:23:39;7.03;;;3.67;;
41685;SDS011;27370;42.764;23.432;2024-03-08T06:26:04;8.27;;;3.88;;
41685;SDS011;27370;42.764;23.432;2024-03-08T06:28:30;4.68;;;3.28;;
41685;SDS011;27370;42.764;23.432;2024-03-08T06:30:58;6.03;;;3.58;;
41685;SDS011;27370;42.764;23.432;2024-03-08T06:33:24;10.32;;;4.95;;
41685;SDS011;27370;42.764;23.432;2024-03-08T06:35:52;5.63;;;3.65;;
41685;SDS011;27370;42.764;23.432;2024-03-08T06:38:17;5.32;;;3.33;;
41685;SDS011;27370;42.764;23.432;2024-03-08T06:40:44;5.85;;;3.65;;
41685;SDS011;27370;42.764;23.432;2024-03-08T06:43:13;5.93;;;2.95;;
41685;SDS011;27370;42.764;23.432;2024-03-08T06:45:44;5.10;;;3.30;;
41685;SDS011;27370;42.764;23.432;2024-03-08T06:48:17;4.00;;;2.47;;
41685;SDS011;27370;42.764;23.432;2024-03-08T06:50:46;3.47;;;2.33;;
41685;SDS011;27370;42.764;23.432;2024-03-08T06:53:12;3.40;;;2.10;;
41685;SDS011;27370;42.764;23.432;2024-03-08T06:55:38;2.53;;;1.63;;
41685;SDS011;27370;42.764;23.432;2024-03-08T06:58:05;4.80;;;2.40;;
41685;SDS011;27370;42.764;23.432;2024-03-08T07:00:32;2.85;;;2.13;;
41685;SDS011;27370;42.764;23.432;2024-03-08T07:02:59;6.25;;;2.88;;
41685;SDS011;27370;42.764;23.432;2024-03-08T07:05:29;3.65;;;2.38;;
41685;SDS011;27370;42.764;23.432;2024-03-08T07:07:55;3.65;;;2.35;;
41685;SDS011;27370;42.764;23.432;2024-03-08T07:10:21;3.15;;;1.80;;
41685;SDS011;27370;42.764;23.432;2024-03-08T07:12:52;3.30;;;2.25;;
41685;SDS011;27370;42.764;23.432;2024-03-08T07:15:18;2.28;;;1.60;;
41685;SDS011;27370;42.764;23.432;2024-03-08T07:17:45;4.95;;;2.28;;
41685;SDS011;27370;42.764;23.432;2024-03-08T07:20:12;4.10;;;2.20;;
41685;SDS011;27370;42.764;23.432;2024-03-08T07:22:39;3.65;;;2.60;;
41685;SDS011;27370;42.764;23.432;2024-03-08T07:25:05;4.47;;;2.72;;
41685;SDS011;27370;42.764;23.432;2024-03-08T07:27:53;4.32;;;2.53;;
41685;SDS011;27370;42.764;23.432;2024-03-08T07:30:20;2.40;;;1.80;;
41685;SDS011;27370;42.764;23.432;2024-03-08T07:33:08;2.28;;;1.50;;
41685;SDS011;27370;42.764;23.432;2024-03-08T07:35:37;3.88;;;2.10;;
41685;SDS011;27370;42.764;23.432;2024-03-08T07:38:12;2.03;;;1.75;;
41685;SDS011;27370;42.764;23.432;2024-03-08T07:40:38;4.35;;;2.55;;
41685;SDS011;27370;42.764;23.432;2024-03-08T07:43:08;2.97;;;2.03;;
41685;SDS011;27370;42.764;23.432;2024-03-08T07:45:36;3.50;;;2.28;;
41685;SDS011;27370;42.764;23.432;2024-03-08T07:48:06;3.60;;;2.53;;
41685;SDS011;27370;42.764;23.432;2024-03-08T07:50:37;7.93;;;2.53;;
41685;SDS011;27370;42.764;23.432;2024-03-08T07:53:04;6.05;;;3.28;;
41685;SDS011;27370;42.764;23.432;2024-03-08T07:55:35;2.72;;;1.85;;
41685;SDS011;27370;42.764;23.432;2024-03-08T07:58:01;3.08;;;1.83;;
41685;SDS011;27370;42.764;23.432;2024-03-08T08:00:28;1.95;;;1.50;;
41685;SDS011;27370;42.764;23.432;2024-03-08T08:02:55;1.80;;;1.00;;
41685;SDS011;27370;42.764;23.432;2024-03-08T08:05:21;2.83;;;1.90;;
41685;SDS011;27370;42.764;23.432;2024-03-08T08:07:46;3.72;;;2.28;;
41685;SDS011;27370;42.764;23.432;2024-03-08T08:10:12;2.60;;;2.30;;
41685;SDS011;27370;42.764;23.432;2024-03-08T08:12:49;2.35;;;1.52;;
41685;SDS011;27370;42.764;23.432;2024-03-08T08:15:16;12.85;;;2.22;;
41685;SDS011;27370;42.764;23.432;2024-03-08T08:17:46;2.45;;;1.65;;
41685;SDS011;27370;42.764;23.432;2024-03-08T08:20:12;5.03;;;2.08;;
41685;SDS011;27370;42.764;23.432;2024-03-08T08:22:41;2.15;;;1.50;;
41685;SDS011;27370;42.764;23.432;2024-03-08T08:25:08;2.63;;;1.98;;
41685;SDS011;27370;42.764;23.432;2024-03-08T08:27:34;1.88;;;1.25;;
41685;SDS011;27370;42.764;23.432;2024-03-08T08:30:03;2.83;;;2.38;;
41685;SDS011;27370;42.764;23.432;2024-03-08T08:32:33;2.50;;;1.60;;
41685;SDS011;27370;42.764;23.432;2024-03-08T08:35:02;3.58;;;1.95;;
41685;SDS011;27370;42.764;23.432;2024-03-08T08:37:29;3.50;;;1.70;;
41685;SDS011;27370;42.764;23.432;2024-03-08T08:39:56;2.03;;;1.50;;
41685;SDS011;27370;42.764;23.432;2024-03-08T08:42:23;2.55;;;2.05;;
41685;SDS011;27370;42.764;23.432;2024-03-08T08:44:50;1.85;;;1.35;;
41685;SDS011;27370;42.764;23.432;2024-03-08T08:47:17;4.05;;;2.40;;
41685;SDS011;27370;42.764;23.432;2024-03-08T08:49:44;2.38;;;1.63;;
41685;SDS011;27370;42.764;23.432;2024-03-08T08:52:11;2.60;;;1.58;;
41685;SDS011;27370;42.764;23.432;2024-03-08T08:54:38;2.60;;;1.55;;
41685;SDS011;27370;42.764;23.432;2024-03-08T08:57:03;2.97;;;2.15;;
41685;SDS011;27370;42.764;23.432;2024-03-08T08:59:36;3.92;;;2.10;;
41685;SDS011;27370;42.764;23.432;2024-03-08T09:02:03;2.95;;;2.35;;
41685;SDS011;27370;42.764;23.432;2024-03-08T09:04:29;2.63;;;1.83;;
41685;SDS011;27370;42.764;23.432;2024-03-08T09:06:56;2.20;;;1.65;;
41685;SDS011;27370;42.764;23.432;2024-03-08T09:09:22;1.80;;;1.17;;
41685;SDS011;27370;42.764;23.432;2024-03-08T09:11:48;2.33;;;1.42;;
41685;SDS011;27370;42.764;23.432;2024-03-08T09:14:14;2.42;;;1.50;;
41685;SDS011;27370;42.764;23.432;2024-03-08T09:16:40;3.08;;;1.40;;
41685;SDS011;27370;42.764;23.432;2024-03-08T09:19:06;2.70;;;1.60;;
41685;SDS011;27370;42.764;23.432;2024-03-08T09:21:33;2.60;;;1.80;;
41685;SDS011;27370;42.764;23.432;2024-03-08T09:24:02;2.58;;;2.05;;
41685;SDS011;27370;42.764;23.432;2024-03-08T09:26:27;2.70;;;2.13;;
41685;SDS011;27370;42.764;23.432;2024-03-08T09:28:53;2.05;;;1.45;;
41685;SDS011;27370;42.764;23.432;2024-03-08T09:31:20;1.65;;;1.45;;
41685;SDS011;27370;42.764;23.432;2024-03-08T09:33:46;2.05;;;1.35;;
41685;SDS011;27370;42.764;23.432;2024-03-08T09:36:12;1.63;;;1.20;;
41685;SDS011;27370;42.764;23.432;2024-03-08T09:38:39;1.65;;;1.30;;
41685;SDS011;27370;42.764;23.432;2024-03-08T09:41:05;2.45;;;1.38;;
41685;SDS011;27370;42.764;23.432;2024-03-08T09:43:30;1.50;;;1.10;;
41685;SDS011;27370;42.764;23.432;2024-03-08T09:45:56;1.25;;;1.08;;
41685;SDS011;27370;42.764;23.432;2024-03-08T09:48:22;1.10;;;1.00;;
41685;SDS011;27370;42.764;23.432;2024-03-08T09:50:48;2.13;;;1.13;;
41685;SDS011;27370;42.764;23.432;2024-03-08T09:53:14;2.53;;;0.90;;
41685;SDS011;27370;42.764;23.432;2024-03-08T09:55:40;5.30;;;2.92;;
41685;SDS011;27370;42.764;23.432;2024-03-08T09:58:13;12.07;;;6.35;;
41685;SDS011;27370;42.764;23.432;2024-03-08T10:00:58;1.20;;;0.88;;
41685;SDS011;27370;42.764;23.432;2024-03-08T10:03:24;2.10;;;1.20;;
41685;SDS011;27370;42.764;23.432;2024-03-08T10:05:52;2.67;;;1.63;;
41685;SDS011;27370;42.764;23.432;2024-03-08T10:08:18;3.15;;;1.85;;
41685;SDS011;27370;42.764;23.432;2024-03-08T10:10:45;1.67;;;1.08;;
41685;SDS011;27370;42.764;23.432;2024-03-08T10:13:11;2.22;;;1.15;;
41685;SDS011;27370;42.764;23.432;2024-03-08T10:15:41;3.45;;;1.50;;
41685;SDS011;27370;42.764;23.432;2024-03-08T10:18:06;5.10;;;1.55;;
41685;SDS011;27370;42.764;23.432;2024-03-08T10:20:32;0.57;;;0.55;;
41685;SDS011;27370;42.764;23.432;2024-03-08T10:23:02;5.65;;;2.95;;
41685;SDS011;27370;42.764;23.432;2024-03-08T10:25:31;0.45;;;0.35;;
41685;SDS011;27370;42.764;23.432;2024-03-08T10:27:58;0.95;;;0.73;;
41685;SDS011;27370;42.764;23.432;2024-03-08T10:30:23;0.88;;;0.73;;
41685;SDS011;27370;42.764;23.432;2024-03-08T10:32:49;1.60;;;1.00;;
41685;SDS011;27370;42.764;23.432;2024-03-08T10:35:14;6.18;;;3.65;;
41685;SDS011;27370;42.764;23.432;2024-03-08T10:37:45;1.92;;;1.20;;
41685;SDS011;27370;42.764;23.432;2024-03-08T10:40:18;2.42;;;1.30;;
41685;SDS011;27370;42.764;23.432;2024-03-08T10:42:51;2.38;;;1.35;;
41685;SDS011;27370;42.764;23.432;2024-03-08T10:45:37;3.08;;;1.92;;
41685;SDS011;27370;42.764;23.432;2024-03-08T10:50:50;1.67;;;1.13;;
41685;SDS011;27370;42.764;23.432;2024-03-08T10:53:17;4.18;;;0.90;;
41685;SDS011;27370;42.764;23.432;2024-03-08T10:55:43;1.08;;;0.98;;
41685;SDS011;27370;42.764;23.432;2024-03-08T10:58:10;1.88;;;1.13;;
41685;SDS011;27370;42.764;23.432;2024-03-08T11:00:36;2.55;;;1.20;;
41685;SDS011;27370;42.764;23.432;2024-03-08T11:03:02;3.05;;;1.75;;
41685;SDS011;27370;42.764;23.432;2024-03-08T11:05:32;3.58;;;1.33;;
41685;SDS011;27370;42.764;23.432;2024-03-08T11:08:05;1.70;;;1.02;;
41685;SDS011;27370;42.764;23.432;2024-03-08T11:10:50;1.50;;;1.05;;
41685;SDS011;27370;42.764;23.432;2024-03-08T11:16:09;2.97;;;1.20;;
41685;SDS011;27370;42.764;23.432;2024-03-08T11:18:35;2.88;;;1.38;;
41685;SDS011;27370;42.764;23.432;2024-03-08T11:21:03;2.08;;;1.40;;
41685;SDS011;27370;42.764;23.432;2024-03-08T11:23:37;1.58;;;0.88;;
41685;SDS011;27370;42.764;23.432;2024-03-08T11:26:03;3.50;;;1.13;;
41685;SDS011;27370;42.764;23.432;2024-03-08T11:28:32;3.35;;;1.70;;
41685;SDS011;27370;42.764;23.432;2024-03-08T11:33:24;1.90;;;1.10;;
41685;SDS011;27370;42.764;23.432;2024-03-08T11:35:52;1.77;;;1.38;;
41685;SDS011;27370;42.764;23.432;2024-03-08T11:38:17;2.33;;;1.10;;
41685;SDS011;27370;42.764;23.432;2024-03-08T11:40:45;2.85;;;1.98;;
41685;SDS011;27370;42.764;23.432;2024-03-08T11:43:15;2.65;;;2.00;;
41685;SDS011;27370;42.764;23.432;2024-03-08T11:45:41;1.85;;;1.30;;
41685;SDS011;27370;42.764;23.432;2024-03-08T11:48:07;1.20;;;1.10;;
41685;SDS011;27370;42.764;23.432;2024-03-08T11:50:32;1.42;;;1.00;;
41685;SDS011;27370;42.764;23.432;2024-03-08T11:53:04;1.60;;;0.98;;
41685;SDS011;27370;42.764;23.432;2024-03-08T11:55:33;2.55;;;1.40;;
41685;SDS011;27370;42.764;23.432;2024-03-08T11:58:03;2.08;;;1.30;;
41685;SDS011;27370;42.764;23.432;2024-03-08T12:00:30;2.72;;;2.13;;
41685;SDS011;27370;42.764;23.432;2024-03-08T12:03:04;4.60;;;2.47;;
41685;SDS011;27370;42.764;23.432;2024-03-08T12:05:30;2.17;;;1.50;;
41685;SDS011;27370;42.764;23.432;2024-03-08T12:07:57;3.63;;;1.27;;
41685;SDS011;27370;42.764;23.432;2024-03-08T12:10:23;1.55;;;1.17;;
41685;SDS011;27370;42.764;23.432;2024-03-08T12:12:53;1.50;;;1.08;;
41685;SDS011;27370;42.764;23.432;2024-03-08T12:15:20;1.70;;;1.38;;
41685;SDS011;27370;42.764;23.432;2024-03-08T12:17:48;1.58;;;1.23;;
41685;SDS011;27370;42.764;23.432;2024-03-08T12:22:47;1.63;;;1.23;;
41685;SDS011;27370;42.764;23.432;2024-03-08T12:25:13;1.23;;;0.93;;
41685;SDS011;27370;42.764;23.432;2024-03-08T12:27:39;1.40;;;0.90;;
41685;SDS011;27370;42.764;23.432;2024-03-08T12:33:01;1.40;;;1.10;;
41685;SDS011;27370;42.764;23.432;2024-03-08T12:35:27;1.65;;;0.98;;
41685;SDS011;27370;42.764;23.432;2024-03-08T12:37:54;1.88;;;1.20;;
41685;SDS011;27370;42.764;23.432;2024-03-08T12:40:27;1.20;;;0.98;;
41685;SDS011;27370;42.764;23.432;2024-03-08T12:42:54;0.88;;;0.88;;
41685;SDS011;27370;42.764;23.432;2024-03-08T12:45:21;0.93;;;0.60;;
41685;SDS011;27370;42.764;23.432;2024-03-08T12:47:49;1.60;;;0.95;;
41685;SDS011;27370;42.764;23.432;2024-03-08T12:50:18;1.00;;;0.88;;
41685;SDS011;27370;42.764;23.432;2024-03-08T12:52:44;1.10;;;0.82;;
41685;SDS011;27370;42.764;23.432;2024-03-08T12:55:10;0.98;;;0.80;;
41685;SDS011;27370;42.764;23.432;2024-03-08T12:57:37;1.38;;;0.80;;
41685;SDS011;27370;42.764;23.432;2024-03-08T13:00:03;1.67;;;1.02;;
41685;SDS011;27370;42.764;23.432;2024-03-08T13:02:29;2.03;;;0.80;;
41685;SDS011;27370;42.764;23.432;2024-03-08T13:04:56;1.50;;;1.10;;
41685;SDS011;27370;42.764;23.432;2024-03-08T13:07:24;1.15;;;0.90;;
41685;SDS011;27370;42.764;23.432;2024-03-08T13:09:53;1.67;;;1.20;;
41685;SDS011;27370;42.764;23.432;2024-03-08T13:12:19;1.90;;;1.48;;
41685;SDS011;27370;42.764;23.432;2024-03-08T13:14:49;3.25;;;0.85;;
41685;SDS011;27370;42.764;23.432;2024-03-08T13:17:14;4.03;;;2.00;;
41685;SDS011;27370;42.764;23.432;2024-03-08T13:19:40;2.75;;;1.85;;
41685;SDS011;27370;42.764;23.432;2024-03-08T13:22:07;5.10;;;2.55;;
41685;SDS011;27370;42.764;23.432;2024-03-08T13:24:38;3.92;;;2.08;;
41685;SDS011;27370;42.764;23.432;2024-03-08T13:27:09;2.50;;;2.00;;
41685;SDS011;27370;42.764;23.432;2024-03-08T13:30:01;1.65;;;1.15;;
41685;SDS011;27370;42.764;23.432;2024-03-08T13:32:27;1.67;;;1.30;;
41685;SDS011;27370;42.764;23.432;2024-03-08T13:34:52;1.33;;;0.82;;
41685;SDS011;27370;42.764;23.432;2024-03-08T13:37:19;3.42;;;1.40;;
41685;SDS011;27370;42.764;23.432;2024-03-08T13:39:45;2.10;;;1.30;;
41685;SDS011;27370;42.764;23.432;2024-03-08T13:42:11;2.35;;;1.25;;
41685;SDS011;27370;42.764;23.432;2024-03-08T13:44:44;1.95;;;1.52;;
41685;SDS011;27370;42.764;23.432;2024-03-08T13:47:16;1.35;;;1.10;;
41685;SDS011;27370;42.764;23.432;2024-03-08T13:49:43;1.52;;;1.15;;
41685;SDS011;27370;42.764;23.432;2024-03-08T13:52:09;1.67;;;1.27;;
41685;SDS011;27370;42.764;23.432;2024-03-08T13:54:35;1.65;;;1.02;;
41685;SDS011;27370;42.764;23.432;2024-03-08T13:57:01;1.90;;;1.50;;
41685;SDS011;27370;42.764;23.432;2024-03-08T13:59:30;2.60;;;1.52;;
41685;SDS011;27370;42.764;23.432;2024-03-08T14:01:58;2.00;;;1.20;;
41685;SDS011;27370;42.764;23.432;2024-03-08T14:04:24;1.90;;;1.38;;
41685;SDS011;27370;42.764;23.432;2024-03-08T14:06:52;2.55;;;2.05;;
41685;SDS011;27370;42.764;23.432;2024-03-08T14:09:21;4.32;;;1.40;;
41685;SDS011;27370;42.764;23.432;2024-03-08T14:11:50;3.03;;;1.55;;
41685;SDS011;27370;42.764;23.432;2024-03-08T14:14:19;2.13;;;1.65;;
41685;SDS011;27370;42.764;23.432;2024-03-08T14:16:46;2.72;;;2.22;;
41685;SDS011;27370;42.764;23.432;2024-03-08T14:19:13;2.35;;;1.98;;
41685;SDS011;27370;42.764;23.432;2024-03-08T14:21:40;2.47;;;1.83;;
41685;SDS011;27370;42.764;23.432;2024-03-08T14:24:07;1.75;;;1.40;;
41685;SDS011;27370;42.764;23.432;2024-03-08T14:26:34;1.80;;;1.27;;
41685;SDS011;27370;42.764;23.432;2024-03-08T14:28:59;1.38;;;1.02;;
41685;SDS011;27370;42.764;23.432;2024-03-08T14:31:25;1.23;;;0.95;;
41685;SDS011;27370;42.764;23.432;2024-03-08T14:33:51;3.28;;;2.38;;
41685;SDS011;27370;42.764;23.432;2024-03-08T14:36:18;2.70;;;1.98;;
41685;SDS011;27370;42.764;23.432;2024-03-08T14:38:47;1.73;;;1.17;;
41685;SDS011;27370;42.764;23.432;2024-03-08T14:41:13;3.63;;;2.10;;
41685;SDS011;27370;42.764;23.432;2024-03-08T14:43:42;2.95;;;1.80;;
41685;SDS011;27370;42.764;23.432;2024-03-08T14:46:10;1.75;;;1.35;;